sensor_id;sensor_type;location;lat;lon;timestamp;P1;durP1;ratioP1;P2;durP2;ratioP2
2029;SDS011;1020;48.854;8.830;2023-04-03T00:00:09;3.53;;;3.23;;
2029;SDS011;1020;48.854;8.830;2023-04-03T00:02:36;3.63;;;3.33;;
2029;SDS011;1020;48.854;8.830;2023-04-03T00:05:03;3.13;;;2.83;;
2029;SDS011;1020;48.854;8.830;2023-04-03T00:07:30;3.57;;;3.27;;
2029;SDS011;1020;48.854;8.830;2023-04-03T00:09:57;3.10;;;2.80;;
2029;SDS011;1020;48.854;8.830;2023-04-03T00:12:23;3.20;;;3.00;;
2029;SDS011;1020;48.854;8.830;2023-04-03T00:14:52;3.17;;;2.83;;
2029;SDS011;1020;48.854;8.830;2023-04-03T00:17:18;2.97;;;2.77;;
2029;SDS011;1020;48.854;8.830;2023-04-03T00:19:45;4.00;;;3.70;;
2029;SDS011;1020;48.854;8.830;2023-04-03T00:22:12;3.07;;;2.80;;
2029;SDS011;1020;48.854;8.830;2023-04-03T00:24:38;3.10;;;2.90;;
2029;SDS011;1020;48.854;8.830;2023-04-03T00:27:05;3.30;;;3.10;;
2029;SDS011;1020;48.854;8.830;2023-04-03T00:29:32;3.33;;;3.13;;
2029;SDS011;1020;48.854;8.830;2023-04-03T00:32:01;3.73;;;3.43;;
2029;SDS011;1020;48.854;8.830;2023-04-03T00:34:27;3.60;;;3.30;;
2029;SDS011;1020;48.854;8.830;2023-04-03T00:36:54;6.10;;;3.67;;
2029;SDS011;1020;48.854;8.830;2023-04-03T00:39:21;3.07;;;2.87;;
2029;SDS011;1020;48.854;8.830;2023-04-03T00:41:48;3.63;;;3.33;;
2029;SDS011;1020;48.854;8.830;2023-04-03T00:44:19;2.80;;;2.60;;
2029;SDS011;1020;48.854;8.830;2023-04-03T00:46:46;3.00;;;2.80;;
2029;SDS011;1020;48.854;8.830;2023-04-03T00:49:14;2.70;;;2.50;;
2029;SDS011;1020;48.854;8.830;2023-04-03T00:51:41;6.13;;;3.00;;
2029;SDS011;1020;48.854;8.830;2023-04-03T00:54:08;2.97;;;2.77;;
2029;SDS011;1020;48.854;8.830;2023-04-03T00:56:35;3.20;;;3.00;;
2029;SDS011;1020;48.854;8.830;2023-04-03T00:59:04;4.70;;;2.90;;
2029;SDS011;1020;48.854;8.830;2023-04-03T01:01:34;3.10;;;2.83;;
2029;SDS011;1020;48.854;8.830;2023-04-03T01:04:02;3.60;;;3.30;;
2029;SDS011;1020;48.854;8.830;2023-04-03T01:06:32;4.40;;;2.67;;
2029;SDS011;1020;48.854;8.830;2023-04-03T01:09:02;3.60;;;3.40;;
2029;SDS011;1020;48.854;8.830;2023-04-03T01:11:29;5.67;;;3.30;;
2029;SDS011;1020;48.854;8.830;2023-04-03T01:13:56;3.37;;;3.07;;
2029;SDS011;1020;48.854;8.830;2023-04-03T01:16:23;3.70;;;3.40;;
2029;SDS011;1020;48.854;8.830;2023-04-03T01:18:49;3.17;;;2.87;;
2029;SDS011;1020;48.854;8.830;2023-04-03T01:21:23;2.67;;;2.53;;
2029;SDS011;1020;48.854;8.830;2023-04-03T01:24:16;3.60;;;3.13;;
2029;SDS011;1020;48.854;8.830;2023-04-03T01:26:51;3.60;;;3.30;;
2029;SDS011;1020;48.854;8.830;2023-04-03T01:29:18;2.97;;;2.77;;
2029;SDS011;1020;48.854;8.830;2023-04-03T01:31:50;3.00;;;2.80;;
2029;SDS011;1020;48.854;8.830;2023-04-03T01:34:18;3.20;;;3.00;;
2029;SDS011;1020;48.854;8.830;2023-04-03T01:36:46;3.20;;;3.00;;
2029;SDS011;1020;48.854;8.830;2023-04-03T01:39:12;3.70;;;3.40;;
2029;SDS011;1020;48.854;8.830;2023-04-03T01:41:40;2.67;;;2.47;;
2029;SDS011;1020;48.854;8.830;2023-04-03T01:44:06;3.27;;;3.00;;
2029;SDS011;1020;48.854;8.830;2023-04-03T01:46:33;3.47;;;3.17;;
2029;SDS011;1020;48.854;8.830;2023-04-03T01:49:02;3.00;;;2.80;;
2029;SDS011;1020;48.854;8.830;2023-04-03T01:51:29;3.27;;;3.07;;
2029;SDS011;1020;48.854;8.830;2023-04-03T01:53:56;3.10;;;2.80;;
2029;SDS011;1020;48.854;8.830;2023-04-03T01:56:23;3.13;;;2.93;;
2029;SDS011;1020;48.854;8.830;2023-04-03T01:58:50;3.60;;;3.30;;
2029;SDS011;1020;48.854;8.830;2023-04-03T02:01:17;2.40;;;2.20;;
2029;SDS011;1020;48.854;8.830;2023-04-03T02:03:43;3.07;;;2.80;;
2029;SDS011;1020;48.854;8.830;2023-04-03T02:06:12;2.80;;;2.60;;
2029;SDS011;1020;48.854;8.830;2023-04-03T02:08:38;3.10;;;2.80;;
2029;SDS011;1020;48.854;8.830;2023-04-03T02:11:06;3.40;;;3.10;;
2029;SDS011;1020;48.854;8.830;2023-04-03T02:13:33;4.23;;;3.57;;
2029;SDS011;1020;48.854;8.830;2023-04-03T02:16:05;3.33;;;3.03;;
2029;SDS011;1020;48.854;8.830;2023-04-03T02:18:32;2.90;;;2.70;;
2029;SDS011;1020;48.854;8.830;2023-04-03T02:20:59;3.57;;;3.30;;
2029;SDS011;1020;48.854;8.830;2023-04-03T02:23:27;3.70;;;3.17;;
2029;SDS011;1020;48.854;8.830;2023-04-03T02:26:01;4.33;;;2.97;;
2029;SDS011;1020;48.854;8.830;2023-04-03T02:28:32;3.10;;;2.90;;
2029;SDS011;1020;48.854;8.830;2023-04-03T02:30:59;3.73;;;3.43;;
2029;SDS011;1020;48.854;8.830;2023-04-03T02:33:26;3.00;;;2.70;;
2029;SDS011;1020;48.854;8.830;2023-04-03T02:35:53;3.37;;;3.10;;
2029;SDS011;1020;48.854;8.830;2023-04-03T02:38:20;3.67;;;3.33;;
2029;SDS011;1020;48.854;8.830;2023-04-03T02:40:48;3.40;;;3.10;;
2029;SDS011;1020;48.854;8.830;2023-04-03T02:43:15;2.40;;;2.30;;
2029;SDS011;1020;48.854;8.830;2023-04-03T02:45:42;2.67;;;2.47;;
2029;SDS011;1020;48.854;8.830;2023-04-03T02:48:09;3.20;;;2.97;;
2029;SDS011;1020;48.854;8.830;2023-04-03T02:50:37;3.10;;;2.90;;
2029;SDS011;1020;48.854;8.830;2023-04-03T02:53:03;2.97;;;2.77;;
2029;SDS011;1020;48.854;8.830;2023-04-03T02:55:30;3.33;;;2.80;;
2029;SDS011;1020;48.854;8.830;2023-04-03T02:57:58;3.10;;;2.70;;
2029;SDS011;1020;48.854;8.830;2023-04-03T03:00:25;3.47;;;3.23;;
2029;SDS011;1020;48.854;8.830;2023-04-03T03:02:52;3.90;;;3.60;;
2029;SDS011;1020;48.854;8.830;2023-04-03T03:05:18;3.53;;;3.23;;
2029;SDS011;1020;48.854;8.830;2023-04-03T03:07:45;3.10;;;2.90;;
2029;SDS011;1020;48.854;8.830;2023-04-03T03:10:12;3.33;;;3.13;;
2029;SDS011;1020;48.854;8.830;2023-04-03T03:12:38;3.83;;;3.33;;
2029;SDS011;1020;48.854;8.830;2023-04-03T03:15:07;3.50;;;3.30;;
2029;SDS011;1020;48.854;8.830;2023-04-03T03:17:34;3.57;;;3.27;;
2029;SDS011;1020;48.854;8.830;2023-04-03T03:20:01;3.70;;;3.40;;
2029;SDS011;1020;48.854;8.830;2023-04-03T03:22:28;3.63;;;3.20;;
2029;SDS011;1020;48.854;8.830;2023-04-03T03:24:55;3.80;;;3.50;;
2029;SDS011;1020;48.854;8.830;2023-04-03T03:27:21;3.60;;;3.30;;
2029;SDS011;1020;48.854;8.830;2023-04-03T03:29:49;3.97;;;3.63;;
2029;SDS011;1020;48.854;8.830;2023-04-03T03:32:17;4.87;;;4.40;;
2029;SDS011;1020;48.854;8.830;2023-04-03T03:34:44;3.30;;;3.00;;
2029;SDS011;1020;48.854;8.830;2023-04-03T03:37:10;4.47;;;4.07;;
2029;SDS011;1020;48.854;8.830;2023-04-03T03:39:37;3.53;;;3.23;;
2029;SDS011;1020;48.854;8.830;2023-04-03T03:42:04;3.73;;;3.30;;
2029;SDS011;1020;48.854;8.830;2023-04-03T03:44:31;3.10;;;2.90;;
2029;SDS011;1020;48.854;8.830;2023-04-03T03:46:57;3.20;;;3.00;;
2029;SDS011;1020;48.854;8.830;2023-04-03T03:49:26;3.63;;;3.43;;
2029;SDS011;1020;48.854;8.830;2023-04-03T03:51:52;3.17;;;2.97;;
2029;SDS011;1020;48.854;8.830;2023-04-03T03:54:19;4.10;;;3.00;;
2029;SDS011;1020;48.854;8.830;2023-04-03T03:56:46;3.13;;;2.93;;
2029;SDS011;1020;48.854;8.830;2023-04-03T03:59:12;3.57;;;3.27;;
2029;SDS011;1020;48.854;8.830;2023-04-03T04:01:39;3.87;;;3.53;;
2029;SDS011;1020;48.854;8.830;2023-04-03T04:04:06;3.93;;;3.60;;
2029;SDS011;1020;48.854;8.830;2023-04-03T04:06:34;3.83;;;3.53;;
2029;SDS011;1020;48.854;8.830;2023-04-03T04:09:01;3.87;;;3.30;;
2029;SDS011;1020;48.854;8.830;2023-04-03T04:11:28;3.33;;;3.10;;
2029;SDS011;1020;48.854;8.830;2023-04-03T04:13:54;3.63;;;3.43;;
2029;SDS011;1020;48.854;8.830;2023-04-03T04:16:21;3.40;;;3.10;;
2029;SDS011;1020;48.854;8.830;2023-04-03T04:18:48;2.97;;;2.80;;
2029;SDS011;1020;48.854;8.830;2023-04-03T04:21:15;3.50;;;2.97;;
2029;SDS011;1020;48.854;8.830;2023-04-03T04:23:43;3.50;;;3.30;;
2029;SDS011;1020;48.854;8.830;2023-04-03T04:26:10;3.63;;;3.33;;
2029;SDS011;1020;48.854;8.830;2023-04-03T04:28:36;3.50;;;3.20;;
2029;SDS011;1020;48.854;8.830;2023-04-03T04:31:03;3.30;;;2.87;;
2029;SDS011;1020;48.854;8.830;2023-04-03T04:33:30;3.30;;;3.00;;
2029;SDS011;1020;48.854;8.830;2023-04-03T04:35:57;3.60;;;3.10;;
2029;SDS011;1020;48.854;8.830;2023-04-03T04:38:23;3.93;;;3.50;;
2029;SDS011;1020;48.854;8.830;2023-04-03T04:40:51;3.40;;;3.13;;
2029;SDS011;1020;48.854;8.830;2023-04-03T04:43:18;3.43;;;3.10;;
2029;SDS011;1020;48.854;8.830;2023-04-03T04:45:45;5.10;;;3.80;;
2029;SDS011;1020;48.854;8.830;2023-04-03T04:48:12;5.90;;;3.77;;
2029;SDS011;1020;48.854;8.830;2023-04-03T04:50:38;3.70;;;3.27;;
2029;SDS011;1020;48.854;8.830;2023-04-03T04:53:05;3.50;;;3.20;;
2029;SDS011;1020;48.854;8.830;2023-04-03T04:55:32;3.80;;;3.50;;
2029;SDS011;1020;48.854;8.830;2023-04-03T04:58:00;3.90;;;3.60;;
2029;SDS011;1020;48.854;8.830;2023-04-03T05:00:27;3.43;;;3.13;;
2029;SDS011;1020;48.854;8.830;2023-04-03T05:02:53;4.57;;;3.93;;
2029;SDS011;1020;48.854;8.830;2023-04-03T05:05:20;3.40;;;3.00;;
2029;SDS011;1020;48.854;8.830;2023-04-03T05:07:47;3.67;;;3.37;;
2029;SDS011;1020;48.854;8.830;2023-04-03T05:10:14;2.90;;;2.70;;
2029;SDS011;1020;48.854;8.830;2023-04-03T05:12:41;3.30;;;3.10;;
2029;SDS011;1020;48.854;8.830;2023-04-03T05:15:09;2.97;;;2.77;;
2029;SDS011;1020;48.854;8.830;2023-04-03T05:17:36;2.43;;;2.23;;
2029;SDS011;1020;48.854;8.830;2023-04-03T05:20:04;2.83;;;2.53;;
2029;SDS011;1020;48.854;8.830;2023-04-03T05:22:31;2.60;;;2.40;;
2029;SDS011;1020;48.854;8.830;2023-04-03T05:24:58;3.07;;;2.80;;
2029;SDS011;1020;48.854;8.830;2023-04-03T05:27:25;3.17;;;2.97;;
2029;SDS011;1020;48.854;8.830;2023-04-03T05:29:53;2.70;;;2.50;;
2029;SDS011;1020;48.854;8.830;2023-04-03T05:32:21;3.50;;;3.10;;
2029;SDS011;1020;48.854;8.830;2023-04-03T05:34:48;3.53;;;2.80;;
2029;SDS011;1020;48.854;8.830;2023-04-03T05:37:15;3.20;;;2.90;;
2029;SDS011;1020;48.854;8.830;2023-04-03T05:39:42;3.53;;;3.23;;
2029;SDS011;1020;48.854;8.830;2023-04-03T05:42:09;4.07;;;2.80;;
2029;SDS011;1020;48.854;8.830;2023-04-03T05:44:36;4.50;;;3.00;;
2029;SDS011;1020;48.854;8.830;2023-04-03T05:47:03;3.50;;;3.17;;
2029;SDS011;1020;48.854;8.830;2023-04-03T05:49:31;3.27;;;3.00;;
2029;SDS011;1020;48.854;8.830;2023-04-03T05:51:58;3.53;;;3.23;;
2029;SDS011;1020;48.854;8.830;2023-04-03T05:54:25;4.03;;;3.63;;
2029;SDS011;1020;48.854;8.830;2023-04-03T05:56:53;3.30;;;3.00;;
2029;SDS011;1020;48.854;8.830;2023-04-03T05:59:20;3.80;;;2.93;;
2029;SDS011;1020;48.854;8.830;2023-04-03T06:01:47;3.10;;;2.90;;
2029;SDS011;1020;48.854;8.830;2023-04-03T06:04:14;5.37;;;2.90;;
2029;SDS011;1020;48.854;8.830;2023-04-03T06:06:48;3.10;;;2.80;;
2029;SDS011;1020;48.854;8.830;2023-04-03T06:09:17;2.97;;;2.73;;
2029;SDS011;1020;48.854;8.830;2023-04-03T06:11:45;3.10;;;2.90;;
2029;SDS011;1020;48.854;8.830;2023-04-03T06:14:12;2.90;;;2.70;;
2029;SDS011;1020;48.854;8.830;2023-04-03T06:16:39;2.70;;;2.50;;
2029;SDS011;1020;48.854;8.830;2023-04-03T06:19:06;3.27;;;3.07;;
2029;SDS011;1020;48.854;8.830;2023-04-03T06:21:34;3.90;;;3.10;;
2029;SDS011;1020;48.854;8.830;2023-04-03T06:24:03;3.10;;;2.70;;
2029;SDS011;1020;48.854;8.830;2023-04-03T06:26:30;3.00;;;2.73;;
2029;SDS011;1020;48.854;8.830;2023-04-03T06:28:58;3.30;;;3.00;;
2029;SDS011;1020;48.854;8.830;2023-04-03T06:31:25;3.10;;;2.90;;
2029;SDS011;1020;48.854;8.830;2023-04-03T06:33:52;3.80;;;2.90;;
2029;SDS011;1020;48.854;8.830;2023-04-03T06:36:19;4.30;;;2.07;;
2029;SDS011;1020;48.854;8.830;2023-04-03T06:38:46;3.17;;;2.97;;
2029;SDS011;1020;48.854;8.830;2023-04-03T06:41:15;6.83;;;3.20;;
2029;SDS011;1020;48.854;8.830;2023-04-03T06:43:42;3.17;;;2.97;;
2029;SDS011;1020;48.854;8.830;2023-04-03T06:46:12;3.87;;;3.33;;
2029;SDS011;1020;48.854;8.830;2023-04-03T06:48:43;3.30;;;2.73;;
2029;SDS011;1020;48.854;8.830;2023-04-03T06:51:14;3.27;;;3.07;;
2029;SDS011;1020;48.854;8.830;2023-04-03T06:53:44;2.93;;;2.73;;
2029;SDS011;1020;48.854;8.830;2023-04-03T06:56:12;3.17;;;2.87;;
2029;SDS011;1020;48.854;8.830;2023-04-03T06:58:41;3.07;;;2.87;;
2029;SDS011;1020;48.854;8.830;2023-04-03T07:01:08;3.30;;;3.10;;
2029;SDS011;1020;48.854;8.830;2023-04-03T07:03:35;3.77;;;3.40;;
2029;SDS011;1020;48.854;8.830;2023-04-03T07:06:03;3.33;;;3.03;;
2029;SDS011;1020;48.854;8.830;2023-04-03T07:08:30;5.00;;;2.87;;
2029;SDS011;1020;48.854;8.830;2023-04-03T07:10:58;3.80;;;3.30;;
2029;SDS011;1020;48.854;8.830;2023-04-03T07:13:25;3.53;;;3.23;;
2029;SDS011;1020;48.854;8.830;2023-04-03T07:15:53;3.73;;;2.60;;
2029;SDS011;1020;48.854;8.830;2023-04-03T07:18:20;3.13;;;2.93;;
2029;SDS011;1020;48.854;8.830;2023-04-03T07:20:47;3.13;;;2.87;;
2029;SDS011;1020;48.854;8.830;2023-04-03T07:23:14;3.30;;;3.00;;
2029;SDS011;1020;48.854;8.830;2023-04-03T07:25:42;3.53;;;3.20;;
2029;SDS011;1020;48.854;8.830;2023-04-03T07:28:09;4.33;;;3.40;;
2029;SDS011;1020;48.854;8.830;2023-04-03T07:30:41;3.80;;;3.50;;
2029;SDS011;1020;48.854;8.830;2023-04-03T07:33:10;3.50;;;3.20;;
2029;SDS011;1020;48.854;8.830;2023-04-03T07:35:38;3.77;;;3.20;;
2029;SDS011;1020;48.854;8.830;2023-04-03T07:38:05;2.90;;;2.70;;
2029;SDS011;1020;48.854;8.830;2023-04-03T07:40:32;2.77;;;2.57;;
2029;SDS011;1020;48.854;8.830;2023-04-03T07:42:59;3.77;;;3.47;;
2029;SDS011;1020;48.854;8.830;2023-04-03T07:45:26;3.00;;;2.80;;
2029;SDS011;1020;48.854;8.830;2023-04-03T07:47:53;3.40;;;2.90;;
2029;SDS011;1020;48.854;8.830;2023-04-03T07:50:21;4.80;;;3.40;;
2029;SDS011;1020;48.854;8.830;2023-04-03T07:52:48;2.60;;;2.40;;
2029;SDS011;1020;48.854;8.830;2023-04-03T07:55:17;3.00;;;2.70;;
2029;SDS011;1020;48.854;8.830;2023-04-03T07:57:44;4.93;;;3.33;;
2029;SDS011;1020;48.854;8.830;2023-04-03T08:00:11;3.60;;;3.30;;
2029;SDS011;1020;48.854;8.830;2023-04-03T08:02:39;3.73;;;2.73;;
2029;SDS011;1020;48.854;8.830;2023-04-03T08:05:06;3.83;;;3.53;;
2029;SDS011;1020;48.854;8.830;2023-04-03T08:07:35;4.57;;;3.07;;
2029;SDS011;1020;48.854;8.830;2023-04-03T08:10:03;3.20;;;2.90;;
2029;SDS011;1020;48.854;8.830;2023-04-03T08:12:30;3.30;;;3.00;;
2029;SDS011;1020;48.854;8.830;2023-04-03T08:14:57;4.70;;;3.37;;
2029;SDS011;1020;48.854;8.830;2023-04-03T08:17:26;6.23;;;3.30;;
2029;SDS011;1020;48.854;8.830;2023-04-03T08:19:53;2.93;;;2.70;;
2029;SDS011;1020;48.854;8.830;2023-04-03T08:22:19;3.77;;;3.07;;
2029;SDS011;1020;48.854;8.830;2023-04-03T08:24:48;3.27;;;3.07;;
2029;SDS011;1020;48.854;8.830;2023-04-03T08:27:15;3.37;;;3.17;;
2029;SDS011;1020;48.854;8.830;2023-04-03T08:29:42;3.90;;;3.53;;
2029;SDS011;1020;48.854;8.830;2023-04-03T08:32:08;3.50;;;2.60;;
2029;SDS011;1020;48.854;8.830;2023-04-03T08:34:36;3.60;;;3.37;;
2029;SDS011;1020;48.854;8.830;2023-04-03T08:37:04;3.23;;;3.00;;
2029;SDS011;1020;48.854;8.830;2023-04-03T08:39:31;3.60;;;3.13;;
2029;SDS011;1020;48.854;8.830;2023-04-03T08:42:00;2.83;;;2.60;;
2029;SDS011;1020;48.854;8.830;2023-04-03T08:44:34;3.63;;;3.33;;
2029;SDS011;1020;48.854;8.830;2023-04-03T08:47:10;3.63;;;3.33;;
2029;SDS011;1020;48.854;8.830;2023-04-03T08:49:44;3.50;;;3.20;;
2029;SDS011;1020;48.854;8.830;2023-04-03T08:52:17;2.90;;;2.70;;
2029;SDS011;1020;48.854;8.830;2023-04-03T08:54:48;2.93;;;2.73;;
2029;SDS011;1020;48.854;8.830;2023-04-03T08:57:18;3.13;;;2.87;;
2029;SDS011;1020;48.854;8.830;2023-04-03T08:59:51;3.50;;;3.20;;
2029;SDS011;1020;48.854;8.830;2023-04-03T09:02:22;3.57;;;3.37;;
2029;SDS011;1020;48.854;8.830;2023-04-03T09:04:52;2.83;;;2.63;;
2029;SDS011;1020;48.854;8.830;2023-04-03T09:07:20;4.37;;;3.07;;
2029;SDS011;1020;48.854;8.830;2023-04-03T09:09:52;3.53;;;3.23;;
2029;SDS011;1020;48.854;8.830;2023-04-03T09:12:22;3.77;;;3.47;;
2029;SDS011;1020;48.854;8.830;2023-04-03T09:14:54;3.00;;;2.80;;
2029;SDS011;1020;48.854;8.830;2023-04-03T09:17:33;3.03;;;2.83;;
2029;SDS011;1020;48.854;8.830;2023-04-03T09:20:09;3.93;;;3.23;;
2029;SDS011;1020;48.854;8.830;2023-04-03T09:22:48;3.80;;;3.60;;
2029;SDS011;1020;48.854;8.830;2023-04-03T09:25:18;6.17;;;3.20;;
2029;SDS011;1020;48.854;8.830;2023-04-03T09:27:49;4.70;;;3.50;;
2029;SDS011;1020;48.854;8.830;2023-04-03T09:30:17;4.20;;;2.77;;
2029;SDS011;1020;48.854;8.830;2023-04-03T09:32:45;3.80;;;3.17;;
2029;SDS011;1020;48.854;8.830;2023-04-03T09:35:17;2.93;;;2.73;;
2029;SDS011;1020;48.854;8.830;2023-04-03T09:37:48;3.67;;;3.00;;
2029;SDS011;1020;48.854;8.830;2023-04-03T09:45:48;3.90;;;3.00;;
2029;SDS011;1020;48.854;8.830;2023-04-03T09:48:17;3.80;;;2.80;;
2029;SDS011;1020;48.854;8.830;2023-04-03T09:50:53;3.23;;;2.70;;
2029;SDS011;1020;48.854;8.830;2023-04-03T09:53:31;3.40;;;3.20;;
2029;SDS011;1020;48.854;8.830;2023-04-03T09:56:00;3.90;;;3.43;;
2029;SDS011;1020;48.854;8.830;2023-04-03T09:58:31;3.10;;;2.90;;
2029;SDS011;1020;48.854;8.830;2023-04-03T10:00:59;3.00;;;2.70;;
2029;SDS011;1020;48.854;8.830;2023-04-03T10:03:28;3.60;;;3.27;;
2029;SDS011;1020;48.854;8.830;2023-04-03T10:05:57;2.93;;;2.70;;
2029;SDS011;1020;48.854;8.830;2023-04-03T10:08:25;3.60;;;2.60;;
2029;SDS011;1020;48.854;8.830;2023-04-03T10:11:08;4.50;;;3.23;;
2029;SDS011;1020;48.854;8.830;2023-04-03T10:13:50;3.60;;;3.30;;
2029;SDS011;1020;48.854;8.830;2023-04-03T10:16:23;3.10;;;2.67;;
2029;SDS011;1020;48.854;8.830;2023-04-03T10:18:56;9.27;;;2.97;;
2029;SDS011;1020;48.854;8.830;2023-04-03T10:21:44;3.17;;;2.93;;
2029;SDS011;1020;48.854;8.830;2023-04-03T10:24:17;4.33;;;2.80;;
2029;SDS011;1020;48.854;8.830;2023-04-03T10:26:51;2.90;;;2.67;;
2029;SDS011;1020;48.854;8.830;2023-04-03T10:29:28;3.33;;;3.00;;
2029;SDS011;1020;48.854;8.830;2023-04-03T10:32:08;2.80;;;2.60;;
2029;SDS011;1020;48.854;8.830;2023-04-03T10:34:46;3.43;;;3.13;;
2029;SDS011;1020;48.854;8.830;2023-04-03T10:37:18;2.20;;;2.10;;
2029;SDS011;1020;48.854;8.830;2023-04-03T10:39:51;2.50;;;2.30;;
2029;SDS011;1020;48.854;8.830;2023-04-03T10:42:25;3.40;;;2.80;;
2029;SDS011;1020;48.854;8.830;2023-04-03T10:45:14;2.63;;;2.30;;
2029;SDS011;1020;48.854;8.830;2023-04-03T10:47:48;2.83;;;2.63;;
2029;SDS011;1020;48.854;8.830;2023-04-03T10:50:34;2.37;;;2.17;;
2029;SDS011;1020;48.854;8.830;2023-04-03T10:53:08;2.97;;;2.67;;
2029;SDS011;1020;48.854;8.830;2023-04-03T10:55:42;2.73;;;2.53;;
2029;SDS011;1020;48.854;8.830;2023-04-03T10:58:14;2.20;;;2.10;;
2029;SDS011;1020;48.854;8.830;2023-04-03T11:00:49;4.20;;;2.60;;
2029;SDS011;1020;48.854;8.830;2023-04-03T11:03:22;2.67;;;2.50;;
2029;SDS011;1020;48.854;8.830;2023-04-03T11:05:56;2.53;;;2.33;;
2029;SDS011;1020;48.854;8.830;2023-04-03T11:08:28;2.67;;;2.47;;
2029;SDS011;1020;48.854;8.830;2023-04-03T11:11:02;2.90;;;2.70;;
2029;SDS011;1020;48.854;8.830;2023-04-03T11:13:33;2.77;;;2.57;;
2029;SDS011;1020;48.854;8.830;2023-04-03T11:16:07;2.70;;;2.50;;
2029;SDS011;1020;48.854;8.830;2023-04-03T11:18:35;2.40;;;2.20;;
2029;SDS011;1020;48.854;8.830;2023-04-03T11:21:07;4.13;;;2.77;;
2029;SDS011;1020;48.854;8.830;2023-04-03T11:23:40;3.50;;;2.53;;
2029;SDS011;1020;48.854;8.830;2023-04-03T11:26:10;2.53;;;2.40;;
2029;SDS011;1020;48.854;8.830;2023-04-03T11:28:39;2.60;;;2.40;;
2029;SDS011;1020;48.854;8.830;2023-04-03T11:31:15;2.50;;;2.30;;
2029;SDS011;1020;48.854;8.830;2023-04-03T11:33:55;3.73;;;2.60;;
2029;SDS011;1020;48.854;8.830;2023-04-03T11:36:29;2.93;;;2.10;;
2029;SDS011;1020;48.854;8.830;2023-04-03T11:38:58;2.70;;;2.07;;
2029;SDS011;1020;48.854;8.830;2023-04-03T11:41:33;2.87;;;2.67;;
2029;SDS011;1020;48.854;8.830;2023-04-03T11:44:01;4.60;;;2.17;;
2029;SDS011;1020;48.854;8.830;2023-04-03T11:58:19;4.20;;;3.07;;
2029;SDS011;1020;48.854;8.830;2023-04-03T12:00:54;2.80;;;2.60;;
2029;SDS011;1020;48.854;8.830;2023-04-03T12:03:31;2.80;;;2.20;;
2029;SDS011;1020;48.854;8.830;2023-04-03T12:09:24;2.33;;;2.13;;
2029;SDS011;1020;48.854;8.830;2023-04-03T12:11:54;2.37;;;2.17;;
2029;SDS011;1020;48.854;8.830;2023-04-03T12:14:22;2.70;;;2.50;;
2029;SDS011;1020;48.854;8.830;2023-04-03T12:16:52;2.30;;;2.10;;
2029;SDS011;1020;48.854;8.830;2023-04-03T12:19:36;2.53;;;2.33;;
2029;SDS011;1020;48.854;8.830;2023-04-03T12:22:12;3.27;;;2.80;;
2029;SDS011;1020;48.854;8.830;2023-04-03T12:24:41;3.20;;;2.40;;
2029;SDS011;1020;48.854;8.830;2023-04-03T12:27:16;2.53;;;2.33;;
2029;SDS011;1020;48.854;8.830;2023-04-03T12:30:05;2.70;;;2.47;;
2029;SDS011;1020;48.854;8.830;2023-04-03T12:32:51;2.37;;;2.17;;
2029;SDS011;1020;48.854;8.830;2023-04-03T12:35:30;2.87;;;2.60;;
2029;SDS011;1020;48.854;8.830;2023-04-03T12:41:03;3.23;;;1.97;;
2029;SDS011;1020;48.854;8.830;2023-04-03T12:43:47;2.10;;;2.00;;
2029;SDS011;1020;48.854;8.830;2023-04-03T12:46:26;2.40;;;2.10;;
2029;SDS011;1020;48.854;8.830;2023-04-03T12:49:02;8.17;;;2.67;;
2029;SDS011;1020;48.854;8.830;2023-04-03T12:51:45;3.70;;;2.23;;
2029;SDS011;1020;48.854;8.830;2023-04-03T12:54:13;3.33;;;3.03;;
2029;SDS011;1020;48.854;8.830;2023-04-03T12:56:42;2.30;;;2.20;;
2029;SDS011;1020;48.854;8.830;2023-04-03T12:59:15;3.77;;;2.67;;
2029;SDS011;1020;48.854;8.830;2023-04-03T13:01:52;2.50;;;2.03;;
2029;SDS011;1020;48.854;8.830;2023-04-03T13:04:20;2.00;;;1.90;;
2029;SDS011;1020;48.854;8.830;2023-04-03T13:06:49;2.00;;;1.90;;
2029;SDS011;1020;48.854;8.830;2023-04-03T13:09:18;1.90;;;1.80;;
2029;SDS011;1020;48.854;8.830;2023-04-03T13:11:51;2.03;;;1.93;;
2029;SDS011;1020;48.854;8.830;2023-04-03T13:14:23;3.30;;;2.33;;
2029;SDS011;1020;48.854;8.830;2023-04-03T13:16:53;2.20;;;1.77;;
2029;SDS011;1020;48.854;8.830;2023-04-03T13:19:22;2.30;;;2.10;;
2029;SDS011;1020;48.854;8.830;2023-04-03T13:21:54;2.03;;;1.93;;
2029;SDS011;1020;48.854;8.830;2023-04-03T13:24:25;3.43;;;2.40;;
2029;SDS011;1020;48.854;8.830;2023-04-03T13:26:52;5.03;;;2.43;;
2029;SDS011;1020;48.854;8.830;2023-04-03T13:29:21;2.20;;;2.00;;
2029;SDS011;1020;48.854;8.830;2023-04-03T13:31:52;2.57;;;2.17;;
2029;SDS011;1020;48.854;8.830;2023-04-03T13:34:21;2.50;;;2.30;;
2029;SDS011;1020;48.854;8.830;2023-04-03T13:36:56;2.03;;;1.83;;
2029;SDS011;1020;48.854;8.830;2023-04-03T13:39:25;3.17;;;2.27;;
2029;SDS011;1020;48.854;8.830;2023-04-03T13:41:56;2.30;;;2.10;;
2029;SDS011;1020;48.854;8.830;2023-04-03T13:44:26;2.70;;;1.90;;
2029;SDS011;1020;48.854;8.830;2023-04-03T13:46:58;2.30;;;2.10;;
2029;SDS011;1020;48.854;8.830;2023-04-03T13:49:31;3.80;;;2.47;;
2029;SDS011;1020;48.854;8.830;2023-04-03T13:52:02;2.30;;;2.10;;
2029;SDS011;1020;48.854;8.830;2023-04-03T13:54:47;2.60;;;1.93;;
2029;SDS011;1020;48.854;8.830;2023-04-03T13:57:17;3.67;;;2.00;;
2029;SDS011;1020;48.854;8.830;2023-04-03T13:59:44;2.50;;;2.30;;
2029;SDS011;1020;48.854;8.830;2023-04-03T14:02:15;2.00;;;1.90;;
2029;SDS011;1020;48.854;8.830;2023-04-03T14:04:45;1.90;;;1.80;;
2029;SDS011;1020;48.854;8.830;2023-04-03T14:07:22;2.90;;;2.20;;
2029;SDS011;1020;48.854;8.830;2023-04-03T14:09:49;2.73;;;2.53;;
2029;SDS011;1020;48.854;8.830;2023-04-03T14:12:17;3.07;;;1.90;;
2029;SDS011;1020;48.854;8.830;2023-04-03T14:14:47;2.43;;;2.07;;
2029;SDS011;1020;48.854;8.830;2023-04-03T14:17:15;2.37;;;1.40;;
2029;SDS011;1020;48.854;8.830;2023-04-03T14:19:44;2.83;;;2.00;;
2029;SDS011;1020;48.854;8.830;2023-04-03T14:22:15;4.03;;;2.17;;
2029;SDS011;1020;48.854;8.830;2023-04-03T14:24:44;2.10;;;1.90;;
2029;SDS011;1020;48.854;8.830;2023-04-03T14:27:15;2.27;;;2.07;;
2029;SDS011;1020;48.854;8.830;2023-04-03T14:29:44;1.77;;;1.67;;
2029;SDS011;1020;48.854;8.830;2023-04-03T14:32:12;2.37;;;2.20;;
2029;SDS011;1020;48.854;8.830;2023-04-03T14:34:41;2.10;;;2.00;;
2029;SDS011;1020;48.854;8.830;2023-04-03T14:37:09;2.13;;;1.93;;
2029;SDS011;1020;48.854;8.830;2023-04-03T14:39:38;2.47;;;2.27;;
2029;SDS011;1020;48.854;8.830;2023-04-03T14:42:06;1.90;;;1.80;;
2029;SDS011;1020;48.854;8.830;2023-04-03T14:44:38;2.20;;;1.90;;
2029;SDS011;1020;48.854;8.830;2023-04-03T14:47:08;2.03;;;1.93;;
2029;SDS011;1020;48.854;8.830;2023-04-03T14:49:36;2.23;;;2.03;;
2029;SDS011;1020;48.854;8.830;2023-04-03T14:52:04;2.20;;;1.50;;
2029;SDS011;1020;48.854;8.830;2023-04-03T14:54:31;2.00;;;1.90;;
2029;SDS011;1020;48.854;8.830;2023-04-03T14:56:58;2.33;;;2.13;;
2029;SDS011;1020;48.854;8.830;2023-04-03T14:59:27;2.60;;;1.80;;
2029;SDS011;1020;48.854;8.830;2023-04-03T15:01:54;2.50;;;2.30;;
2029;SDS011;1020;48.854;8.830;2023-04-03T15:04:21;2.50;;;2.20;;
2029;SDS011;1020;48.854;8.830;2023-04-03T15:06:48;2.83;;;2.00;;
2029;SDS011;1020;48.854;8.830;2023-04-03T15:09:19;2.57;;;2.37;;
2029;SDS011;1020;48.854;8.830;2023-04-03T15:11:47;2.40;;;2.20;;
2029;SDS011;1020;48.854;8.830;2023-04-03T15:14:14;2.20;;;2.00;;
2029;SDS011;1020;48.854;8.830;2023-04-03T15:16:43;3.50;;;1.87;;
2029;SDS011;1020;48.854;8.830;2023-04-03T15:19:11;3.07;;;2.30;;
2029;SDS011;1020;48.854;8.830;2023-04-03T15:21:38;2.90;;;2.40;;
2029;SDS011;1020;48.854;8.830;2023-04-03T15:24:05;2.93;;;2.63;;
2029;SDS011;1020;48.854;8.830;2023-04-03T15:26:33;2.50;;;2.30;;
2029;SDS011;1020;48.854;8.830;2023-04-03T15:28:59;2.67;;;2.20;;
2029;SDS011;1020;48.854;8.830;2023-04-03T15:31:27;2.63;;;2.00;;
2029;SDS011;1020;48.854;8.830;2023-04-03T15:33:55;2.30;;;2.20;;
2029;SDS011;1020;48.854;8.830;2023-04-03T15:36:22;2.50;;;2.30;;
2029;SDS011;1020;48.854;8.830;2023-04-03T15:38:48;3.53;;;2.10;;
2029;SDS011;1020;48.854;8.830;2023-04-03T15:41:15;2.80;;;2.60;;
2029;SDS011;1020;48.854;8.830;2023-04-03T15:43:42;2.03;;;1.83;;
2029;SDS011;1020;48.854;8.830;2023-04-03T15:46:09;2.53;;;2.27;;
2029;SDS011;1020;48.854;8.830;2023-04-03T15:48:36;3.10;;;2.00;;
2029;SDS011;1020;48.854;8.830;2023-04-03T15:51:06;3.23;;;2.90;;